^^
MeteoGriva-Weather Station Historical Data
Daily Summary for August 02, 2020 Units:  English    Metric   Both
Daily Weekly Monthly Yearly Custom
  High: Low: Average:
Temperature: 93 °F 71.2 °F 80.4 °F
Dew Point: 70.5 °F 56.7 °F 63.3 °F
Humidity: 78.9% 33.2% 58%
Wind Speed: 7.7mph 0mph 1.6mph
Wind Gust: 17.4mph - -
Wind- - SSE
Pressure: 29.8 in 29.7 in -
Precipitation: 0 in    
Historical Graphs
 
 
Tabular Data for August 02, 2020
Time Temperature Dew Point Pressure Wind Wind Speed Wind Gust Humidity Rainfall Rate (Hourly) solar
00:04 77.9 °F 61.5 °F 29.7 in Calm   2.5 mph 57.1% 0 in 0 W/m2
00:09 78.4 °F 61.7 °F 29.7 in Calm   4.9 mph 56.8% 0 in 0 W/m2
00:14 78.6 °F 62.4 °F 29.7 in Calm     57.8% 0 in 0 W/m2
00:19 78.4 °F 63 °F 29.7 in Calm     59.1% 0 in 0 W/m2
00:24 78.1 °F 63.1 °F 29.7 in NNW 0.4 mph 4.9 mph 60% 0 in 0 W/m2
00:29 77 °F 62.4 °F 29.7 in Calm   4.9 mph 60.6% 0 in 0 W/m2
00:34 76.3 °F 61.9 °F 29.7 in Calm     61% 0 in 0 W/m2
00:39 76.3 °F 61.7 °F 29.7 in Calm     60.8% 0 in 0 W/m2
00:44 76.1 °F 61.7 °F 29.7 in Calm     60.7% 0 in 0 W/m2
00:49 75.9 °F 61.3 °F 29.7 in NW 0.9 mph 7.6 mph 60.3% 0 in 0 W/m2
00:54 75.9 °F 60.8 °F 29.7 in North 2 mph 7.6 mph 59.2% 0 in 0 W/m2
00:59 76.1 °F 60.6 °F 29.7 in North 3.9 mph 7.6 mph 58.4% 0 in 0 W/m2
01:04 76.5 °F 60.8 °F 29.7 in North 1.9 mph 10.1 mph 58.4% 0 in 0 W/m2
01:09 77.2 °F 61.9 °F 29.7 in NW 2.2 mph 10.1 mph 59.3% 0 in 0 W/m2
01:14 77.5 °F 62.8 °F 29.7 in North 1.6 mph 7.6 mph 60.6% 0 in 0 W/m2
01:19 77.5 °F 63 °F 29.7 in NNW 1.3 mph 7.6 mph 61.2% 0 in 0 W/m2
01:24 77.4 °F 63.1 °F 29.7 in West 0.2 mph 4.9 mph 61.9% 0 in 0 W/m2
01:29 76.8 °F 63.3 °F 29.7 in NW 0.2 mph 2.5 mph 63% 0 in 0 W/m2
01:34 76.3 °F 62.4 °F 29.7 in Calm   2.5 mph 62.2% 0 in 0 W/m2
01:39 76.3 °F 62.2 °F 29.7 in Calm     61.8% 0 in 0 W/m2
01:44 76.1 °F 62.1 °F 29.7 in Calm     62% 0 in 0 W/m2
01:49 75.9 °F 62.1 °F 29.7 in Calm     62% 0 in 0 W/m2
01:54 75.6 °F 61.9 °F 29.7 in Calm     62.6% 0 in 0 W/m2
01:59 75.6 °F 61.9 °F 29.7 in Calm     62.7% 0 in 0 W/m2
02:04 75.6 °F 62.1 °F 29.7 in Calm     63% 0 in 0 W/m2
02:09 75.2 °F 61.5 °F 29.7 in Calm     62.6% 0 in 0 W/m2
02:14 75 °F 61.3 °F 29.7 in Calm     62.2% 0 in 0 W/m2
02:19 75 °F 61.3 °F 29.7 in Calm     62.4% 0 in 0 W/m2
02:24 75 °F 61 °F 29.7 in Calm     61.7% 0 in 0 W/m2
02:29 75.6 °F 60.8 °F 29.7 in Calm     60.6% 0 in 0 W/m2
02:34 76.1 °F 61 °F 29.7 in Calm     59.7% 0 in 0 W/m2
02:44 75.9 °F 62.1 °F 29.7 in Calm     62% 0 in 0 W/m2
02:49 75.6 °F 62.6 °F 29.7 in Calm     64.3% 0 in 0 W/m2
02:54 74.8 °F 63.1 °F 29.7 in Calm     66.8% 0 in 0 W/m2
02:59 75 °F 63.3 °F 29.7 in Calm     67.1% 0 in 0 W/m2
03:04 75 °F 63 °F 29.7 in Calm     66% 0 in 0 W/m2
03:09 74.8 °F 62.8 °F 29.7 in Calm     66% 0 in 0 W/m2
03:14 74.7 °F 63.3 °F 29.7 in Calm     67.7% 0 in 0 W/m2
03:19 74.7 °F 64.8 °F 29.7 in Calm     71.1% 0 in 0 W/m2
03:24 74.7 °F 64.6 °F 29.7 in Calm     70.8% 0 in 0 W/m2
03:29 74.8 °F 63.9 °F 29.7 in South 0.2 mph 4.9 mph 68.8% 0 in 0 W/m2
03:34 74.7 °F 64.4 °F 29.7 in Calm   4.9 mph 70.8% 0 in 0 W/m2
03:39 74.5 °F 64.2 °F 29.7 in Calm     70.8% 0 in 0 W/m2
03:44 74.3 °F 64.4 °F 29.7 in Calm     71.3% 0 in 0 W/m2
03:49 73.6 °F 64 °F 29.7 in Calm     71.9% 0 in 0 W/m2
03:54 72.7 °F 62.6 °F 29.7 in NW 0.2 mph 4.9 mph 70.7% 0 in 0 W/m2
03:59 72.7 °F 62.2 °F 29.7 in Calm   4.9 mph 70% 0 in 0 W/m2
04:04 72.7 °F 62.2 °F 29.7 in Calm     70% 0 in 0 W/m2
04:09 73 °F 62.6 °F 29.7 in Calm     70.3% 0 in 0 W/m2
04:14 73 °F 63.3 °F 29.7 in Calm     71.7% 0 in 0 W/m2
04:19 73 °F 63.5 °F 29.7 in Calm     72.2% 0 in 0 W/m2
04:24 73 °F 64 °F 29.7 in Calm     73.3% 0 in 0 W/m2
04:29 72.9 °F 63.9 °F 29.7 in Calm     73.4% 0 in 0 W/m2
04:34 72.7 °F 63.3 °F 29.7 in Calm     72.3% 0 in 0 W/m2
04:39 72.7 °F 63.1 °F 29.7 in Calm     71.8% 0 in 0 W/m2
04:44 72.9 °F 63.7 °F 29.7 in Calm     72.9% 0 in 0 W/m2
04:49 73 °F 63.5 °F 29.7 in Calm     72% 0 in 0 W/m2
04:54 73.4 °F 64 °F 29.7 in Calm     72.4% 0 in 0 W/m2
04:59 73.2 °F 64.4 °F 29.7 in Calm     74% 0 in 0 W/m2
05:09 73 °F 64.9 °F 29.7 in Calm     75.7% 0 in 0 W/m2
05:14 72.3 °F 64.4 °F 29.7 in SSW 0.4 mph 7.6 mph 76% 0 in 0 W/m2
05:19 72.3 °F 64.2 °F 29.7 in South 2.6 mph 7.6 mph 75.8% 0 in 0 W/m2
05:24 72.3 °F 64.6 °F 29.7 in South 2.3 mph 7.6 mph 76.3% 0 in 0 W/m2
05:29 72.3 °F 64.4 °F 29.7 in South 2.4 mph 7.6 mph 76% 0 in 0 W/m2
05:34 72.3 °F 64.9 °F 29.7 in Calm   4.9 mph 77.4% 0 in 0 W/m2
05:39 72.3 °F 64.9 °F 29.7 in Calm     77.2% 0 in 0 W/m2
05:44 72.1 °F 64.4 °F 29.7 in Calm     76.1% 0 in 0 W/m2
05:49 72.1 °F 64.4 °F 29.7 in Calm     76.7% 0 in 0 W/m2
05:54 71.6 °F 64 °F 29.7 in Calm     77% 0 in 0 W/m2
05:59 71.6 °F 64 °F 29.7 in Calm     77% 0 in 0 W/m2
06:04 71.6 °F 64.2 °F 29.7 in Calm     77.6% 0 in 0 W/m2
06:09 71.6 °F 64.4 °F 29.7 in Calm     78% 0 in 0 W/m2
06:14 71.4 °F 63.9 °F 29.7 in Calm     77.3% 0 in 0 W/m2
06:19 71.2 °F 63.7 °F 29.7 in Calm     77% 0 in 0 W/m2
06:24 71.2 °F 63.7 °F 29.7 in NNW 0.1 mph 2.5 mph 77% 0 in 0 W/m2
06:29 71.4 °F 63.5 °F 29.7 in Calm   2.5 mph 76.1% 0 in 3 W/m2
06:34 71.6 °F 63.9 °F 29.7 in Calm     76.7% 0 in 6 W/m2
06:39 71.6 °F 63.9 °F 29.7 in Calm   2.5 mph 76.3% 0 in 11 W/m2
06:44 71.6 °F 64 °F 29.7 in Calm     77% 0 in 37 W/m2
06:49 71.6 °F 63.7 °F 29.7 in Calm     76.1% 0 in 66 W/m2
06:54 72.1 °F 63.9 °F 29.7 in Calm     75.1% 0 in 91 W/m2
06:59 72.3 °F 63.5 °F 29.7 in Calm     74% 0 in 107 W/m2
07:04 72.7 °F 63.3 °F 29.7 in Calm     72.4% 0 in 123 W/m2
07:09 73 °F 62.8 °F 29.7 in Calm     70.2% 0 in 139 W/m2
07:14 75.7 °F 64.8 °F 29.7 in Calm     68.7% 0 in 154 W/m2
07:19 76.1 °F 64.9 °F 29.7 in Calm     68.4% 0 in 167 W/m2
07:24 76.3 °F 64.4 °F 29.7 in Calm     66.7% 0 in 183 W/m2
07:29 76.8 °F 63.9 °F 29.7 in Calm     64.1% 0 in 200 W/m2
07:34 79.7 °F 66.4 °F 29.7 in Calm     64.1% 0 in 208 W/m2
07:39 80.1 °F 67.3 °F 29.7 in Calm     65% 0 in 228 W/m2
07:44 79.9 °F 67.3 °F 29.7 in Calm     65.5% 0 in 240 W/m2
07:49 79.9 °F 66.7 °F 29.7 in Calm     64.3% 0 in 256 W/m2
07:54 80.1 °F 66.7 °F 29.7 in Calm     64% 0 in 245 W/m2
07:59 80.1 °F 66.7 °F 29.7 in Calm     63.9% 0 in 257 W/m2
08:04 80.1 °F 66.6 °F 29.7 in Calm     63.1% 0 in 281 W/m2
08:09 80.2 °F 66.9 °F 29.7 in Calm     63.9% 0 in 221 W/m2
08:14 79.2 °F 66.6 °F 29.7 in Calm     65.6% 0 in 269 W/m2
08:19 79 °F 67.1 °F 29.7 in Calm     67% 0 in 270 W/m2
08:24 78.8 °F 67.1 °F 29.7 in Calm     67.7% 0 in 280 W/m2
08:29 78.6 °F 67.5 °F 29.7 in Calm     68.6% 0 in 279 W/m2
08:34 80.1 °F 67.1 °F 29.7 in Calm     64.7% 0 in 290 W/m2
08:39 80.4 °F 67.1 °F 29.7 in Calm     63.9% 0 in 292 W/m2
08:44 80.2 °F 68.4 °F 29.7 in NNE 1.1 mph 4.9 mph 66.7% 0 in 295 W/m2
08:49 80.1 °F 67.5 °F 29.7 in ENE 0.3 mph 4.9 mph 65.5% 0 in 302 W/m2
08:54 79.7 °F 65.1 °F 29.7 in Calm   2.5 mph 61% 0 in 310 W/m2
08:59 79.7 °F 63.9 °F 29.7 in NNE 0.5 mph 4.9 mph 58.6% 0 in 315 W/m2
09:04 79.7 °F 63.9 °F 29.7 in NE 0.6 mph 4.9 mph 58.7% 0 in 321 W/m2
09:09 79.7 °F 63.5 °F 29.7 in NE 0.1 mph 4.9 mph 57.8% 0 in 326 W/m2
09:14 80.1 °F 63.5 °F 29.7 in ENE 0.2 mph 4.9 mph 56.9% 0 in 332 W/m2
09:19 80.4 °F 62.8 °F 29.7 in Calm     55.1% 0 in 337 W/m2
09:24 80.6 °F 62.1 °F 29.7 in Calm   2.5 mph 53.4% 0 in 346 W/m2
09:29 81 °F 63 °F 29.7 in SE 0.2 mph 4.9 mph 54.6% 0 in 353 W/m2
09:34 82.4 °F 66.2 °F 29.7 in SE 0.4 mph 2.5 mph 58.3% 0 in 357 W/m2
09:39 82.9 °F 66.2 °F 29.7 in SE 0.2 mph 2.5 mph 56.8% 0 in 362 W/m2
09:44 83.1 °F 64.9 °F 29.7 in SSE 0.1 mph 4.9 mph 54.2% 0 in 372 W/m2
09:49 82.9 °F 62.2 °F 29.7 in ESE 1.2 mph 7.6 mph 49.8% 0 in 378 W/m2
09:54 82.9 °F 61.9 °F 29.7 in ESE 0.2 mph 4.9 mph 48.9% 0 in 386 W/m2
09:59 83.3 °F 58.8 °F 29.7 in East 0.5 mph 2.5 mph 43.7% 0 in 395 W/m2
10:04 83.3 °F 59.5 °F 29.7 in NNW 3.1 mph 10.1 mph 44.6% 0 in 397 W/m2
10:09 83.1 °F 59.5 °F 29.7 in North 3.7 mph 10.1 mph 44.8% 0 in 398 W/m2
10:14 82 °F 58.5 °F 29.7 in NE 1.1 mph 10.1 mph 44.8% 0 in 406 W/m2
10:19 81.7 °F 57.4 °F 29.7 in North 1.2 mph 4.9 mph 43.7% 0 in 417 W/m2
10:24 82 °F 57.2 °F 29.7 in ESE 0.2 mph 4.9 mph 42.8% 0 in 430 W/m2
10:29 82.6 °F 57.2 °F 29.7 in East 0.7 mph 4.9 mph 42.4% 0 in 438 W/m2
10:34 84 °F 57.7 °F 29.7 in East 0.7 mph 7.6 mph 40.8% 0 in 448 W/m2
10:39 84.9 °F 58.5 °F 29.7 in ESE 1.8 mph 12.5 mph 40.7% 0 in 452 W/m2
10:44 84.7 °F 58.6 °F 29.7 in ENE 0.2 mph 10.1 mph 41.2% 0 in 460 W/m2
10:49 84.6 °F 57.6 °F 29.7 in ESE 0.2 mph 7.6 mph 40% 0 in 470 W/m2
10:54 84.9 °F 57.6 °F 29.7 in ENE 0.6 mph 7.6 mph 39.5% 0 in 481 W/m2
10:59 84.9 °F 57.9 °F 29.7 in ENE 0.2 mph 4.9 mph 39.9% 0 in 481 W/m2
11:03 84.9 °F 57 °F 29.7 in North 0.1 mph 2.5 mph 38.8% 0 in 490 W/m2
11:09 85.1 °F 57.2 °F 29.8 in NE 0.3 mph 2.5 mph 38.7% 0 in 500 W/m2
11:14 85.6 °F 57.7 °F 29.7 in Calm   2.5 mph 38.9% 0 in 507 W/m2
11:19 86.2 °F 57.6 °F 29.7 in SE 0.1 mph 2.5 mph 38% 0 in 512 W/m2
11:24 86.4 °F 59.5 °F 29.7 in NE 1.3 mph 7.6 mph 40.5% 0 in 513 W/m2
11:29 86 °F 60.3 °F 29.7 in ENE 1.9 mph 7.6 mph 41.9% 0 in 509 W/m2
11:34 85.8 °F 59.2 °F 29.7 in Calm   4.9 mph 40.7% 0 in 513 W/m2
11:39 85.8 °F 58.3 °F 29.7 in SE 1.2 mph 4.9 mph 39.4% 0 in 519 W/m2
11:44 86.2 °F 57.9 °F 29.7 in Calm   4.9 mph 38.5% 0 in 524 W/m2
11:49 86.5 °F 58.5 °F 29.7 in East 1.6 mph 7.6 mph 38.8% 0 in 526 W/m2
11:54 86.2 °F 58.8 °F 29.7 in East 1.7 mph 7.6 mph 39.7% 0 in 525 W/m2
11:59 85.5 °F 58.5 °F 29.7 in ENE 1.2 mph 7.6 mph 40% 0 in 521 W/m2
12:04 85.5 °F 58.5 °F 29.7 in NNE 1.9 mph 10.1 mph 39.9% 0 in 522 W/m2
12:09 85.6 °F 58.5 °F 29.7 in NE 2 mph 7.6 mph 40% 0 in 523 W/m2
12:14 86.2 °F 58.1 °F 29.7 in East 0.6 mph 7.6 mph 38.7% 0 in 528 W/m2
12:19 86.9 °F 59.2 °F 29.7 in NNW 0.8 mph 7.6 mph 39.2% 0 in 529 W/m2
12:24 86.7 °F 58.8 °F 29.7 in NNW 3.1 mph 10.1 mph 39.1% 0 in 531 W/m2
12:29 86.7 °F 58.8 °F 29.7 in NE 2.2 mph 10.1 mph 39.1% 0 in 529 W/m2
12:34 85.8 °F 58.1 °F 29.7 in NNE 2.4 mph 7.6 mph 39.3% 0 in 530 W/m2
12:39 84.7 °F 57 °F 29.7 in NNE 0.1 mph 7.6 mph 38.8% 0 in 537 W/m2
12:44 85.3 °F 56.7 °F 29.7 in ENE 0.6 mph 4.9 mph 37.8% 0 in 542 W/m2
12:49 85.3 °F 57 °F 29.7 in ENE 1.1 mph 2.5 mph 38.3% 0 in 543 W/m2
12:54 85.6 °F 58.5 °F 29.7 in North 1.9 mph 7.6 mph 39.8% 0 in 542 W/m2
12:59 86 °F 58.3 °F 29.7 in ESE 3.1 mph 12.5 mph 39.3% 0 in 540 W/m2
13:04 86.2 °F 58.5 °F 29.7 in ENE 3.2 mph 12.5 mph 39.1% 0 in 538 W/m2
13:09 86.5 °F 58.6 °F 29.7 in East 2.1 mph 10.1 mph 38.9% 0 in 541 W/m2
13:14 87.4 °F 59.4 °F 29.7 in SSE 2.3 mph 10.1 mph 38.7% 0 in 542 W/m2
13:19 88.5 °F 59.9 °F 29.7 in North 1.4 mph 7.6 mph 38.3% 0 in 545 W/m2
13:24 88.3 °F 60.1 °F 29.7 in NNE 5.3 mph 12.5 mph 38.7% 0 in 542 W/m2
13:29 88 °F 59.9 °F 29.7 in NE 5 mph 12.5 mph 39% 0 in 531 W/m2
13:34 87.1 °F 59.2 °F 29.7 in NE 3.5 mph 15 mph 39% 0 in 529 W/m2
13:39 86 °F 57.7 °F 29.7 in North 1.6 mph 10.1 mph 38.4% 0 in 537 W/m2
13:44 86.4 °F 57.7 °F 29.7 in NNE 3.9 mph 10.1 mph 38.2% 0 in 538 W/m2
13:49 86.5 °F 58.5 °F 29.7 in ENE 3.1 mph 10.1 mph 38.9% 0 in 537 W/m2
13:54 86.7 °F 58.5 °F 29.7 in North 3.5 mph 12.5 mph 38.4% 0 in 536 W/m2
13:59 87.6 °F 58.8 °F 29.7 in North 3.1 mph 12.5 mph 38% 0 in 537 W/m2
14:04 87.6 °F 58.6 °F 29.7 in ENE 1.8 mph 7.6 mph 37.8% 0 in 539 W/m2
14:09 87.4 °F 58.1 °F 29.7 in ENE 0.7 mph 7.6 mph 37.3% 0 in 549 W/m2
14:14 88 °F 58.1 °F 29.7 in SE 2.7 mph 12.5 mph 36.7% 0 in 549 W/m2
14:19 89.1 °F 58.8 °F 29.7 in SE 1.6 mph 12.5 mph 36.3% 0 in 548 W/m2
14:24 89.1 °F 59.2 °F 29.7 in NNE 2.5 mph 10.1 mph 36.7% 0 in 553 W/m2
14:29 89.1 °F 59.5 °F 29.7 in NE 2 mph 7.6 mph 37.3% 0 in 548 W/m2
14:34 88.7 °F 59.7 °F 29.7 in NNE 2.2 mph 10.1 mph 37.8% 0 in 543 W/m2
14:39 88.3 °F 59 °F 29.7 in NE 2.6 mph 10.1 mph 37.1% 0 in 544 W/m2
14:44 88.3 °F 59 °F 29.7 in SE 2.1 mph 12.5 mph 37.2% 0 in 547 W/m2
14:49 88.5 °F 58.5 °F 29.7 in SE 1.2 mph 12.5 mph 36.4% 0 in 550 W/m2
14:54 88.5 °F 58.5 °F 29.7 in NNE 1.1 mph 10.1 mph 36.4% 0 in 551 W/m2
14:59 88 °F 58.3 °F 29.7 in East 1.4 mph 10.1 mph 36.8% 0 in 551 W/m2
15:04 88.2 °F 57.9 °F 29.7 in ESE 0.8 mph 4.9 mph 36% 0 in 550 W/m2
15:09 88.3 °F 58.5 °F 29.7 in NE 1.4 mph 7.6 mph 36.6% 0 in 549 W/m2
15:14 88.5 °F 58.3 °F 29.7 in ESE 1.1 mph 7.6 mph 36.1% 0 in 549 W/m2
15:19 90 °F 58.6 °F 29.7 in ESE 0.2 mph 7.6 mph 35% 0 in 552 W/m2
15:24 90.1 °F 58.6 °F 29.7 in SSE 0.9 mph 7.6 mph 34.7% 0 in 556 W/m2
15:29 90.3 °F 59 °F 29.7 in SE 1.9 mph 7.6 mph 34.9% 0 in 555 W/m2
15:34 90.5 °F 59.2 °F 29.7 in South 1 mph 7.6 mph 35% 0 in 550 W/m2
15:39 91.8 °F 59.7 °F 29.7 in South 0.8 mph 4.9 mph 34.3% 0 in 550 W/m2
15:44 91.8 °F 59.7 °F 29.7 in SSE 0.4 mph 4.9 mph 34.3% 0 in 551 W/m2
15:49 91.8 °F 60.1 °F 29.7 in Calm     34.7% 0 in 548 W/m2
15:54 91.9 °F 59.4 °F 29.7 in Calm     33.8% 0 in 549 W/m2
15:59 93 °F 60.4 °F 29.7 in North 0.9 mph 4.9 mph 34% 0 in 549 W/m2
16:04 92.5 °F 60.1 °F 29.7 in Calm   2.5 mph 34% 0 in 539 W/m2
16:09 91.9 °F 60.4 °F 29.7 in North 2.2 mph 10.1 mph 35.1% 0 in 538 W/m2
16:14 91.4 °F 60.3 °F 29.7 in East 1 mph 10.1 mph 35.3% 0 in 530 W/m2
16:19 90 °F 58.6 °F 29.7 in NE 0.5 mph 4.9 mph 35% 0 in 529 W/m2
16:24 90 °F 58.8 °F 29.7 in NNE 1.4 mph 7.6 mph 35.3% 0 in 525 W/m2
16:29 89.6 °F 58.3 °F 29.7 in Calm   2.5 mph 34.8% 0 in 520 W/m2
16:34 89.8 °F 57 °F 29.7 in Calm     33.2% 0 in 525 W/m2
16:44 92.5 °F 66.4 °F 29.7 in SE 4 mph 10.1 mph 42.4% 0 in 519 W/m2
16:49 92.3 °F 68.4 °F 29.7 in South 3.7 mph 10.1 mph 45.8% 0 in 510 W/m2
16:54 91.9 °F 65.3 °F 29.7 in SSE 3.9 mph 10.1 mph 41.6% 0 in 504 W/m2
16:59 91 °F 62.1 °F 29.7 in South 1.3 mph 7.6 mph 38.3% 0 in 500 W/m2
17:04 91 °F 63.3 °F 29.7 in SE 0.4 mph 7.6 mph 40% 0 in 497 W/m2
17:09 91 °F 63.3 °F 29.7 in South 2.4 mph 10.1 mph 40% 0 in 494 W/m2
17:12 91 °F 63.5 °F 29.7 in SE 0.7 mph 7.6 mph 40.3% 0 in 488 W/m2
17:24 91.2 °F 62.8 °F 29.8 in Calm     38.9% 0 in 483 W/m2
17:29 91.4 °F 63.7 °F 29.7 in SSW 1.5 mph 7.6 mph 40% 0 in 480 W/m2
17:34 90.7 °F 66.2 °F 29.7 in SSE 3.1 mph 10.1 mph 44.6% 0 in 477 W/m2
17:39 89.8 °F 65.3 °F 29.7 in SSE 1.4 mph 12.5 mph 44.4% 0 in 465 W/m2
17:44 89.8 °F 63.7 °F 29.7 in SE 1.1 mph 4.9 mph 42.1% 0 in 456 W/m2
17:49 90 °F 63.5 °F 29.7 in ESE 0.2 mph 4.9 mph 41.6% 0 in 449 W/m2
17:54 90 °F 64.2 °F 29.7 in SSE 1.2 mph 10.1 mph 42.6% 0 in 445 W/m2
17:59 90 °F 69.1 °F 29.7 in South 5.1 mph 12.5 mph 50.6% 0 in 373 W/m2
18:04 89.4 °F 70.3 °F 29.7 in South 7.1 mph 15 mph 53.7% 0 in 415 W/m2
18:09 88.7 °F 69.6 °F 29.7 in South 7.7 mph 17.4 mph 53.2% 0 in 408 W/m2
18:14 87.4 °F 69.3 °F 29.7 in South 6.6 mph 17.4 mph 55.2% 0 in 403 W/m2
18:19 85.8 °F 69.6 °F 29.7 in South 6.8 mph 17.4 mph 58.6% 0 in 398 W/m2
18:24 85.6 °F 70 °F 29.7 in South 5.3 mph 10.1 mph 59.9% 0 in 328 W/m2
18:29 85.3 °F 70.5 °F 29.7 in South 3.9 mph 10.1 mph 61.4% 0 in 62 W/m2
18:34 84.2 °F 70 °F 29.7 in South 7.5 mph 17.4 mph 62.3% 0 in 58 W/m2
18:39 82.8 °F 69.1 °F 29.7 in South 6.8 mph 17.4 mph 63.4% 0 in 56 W/m2
18:44 82.8 °F 68.9 °F 29.7 in SSW 4.4 mph 10.1 mph 63.2% 0 in 54 W/m2
18:49 82.6 °F 68.9 °F 29.7 in South 6.3 mph 12.5 mph 63.4% 0 in 53 W/m2
18:54 82.2 °F 68.7 °F 29.7 in South 5.7 mph 12.5 mph 63.4% 0 in 51 W/m2
18:59 81.7 °F 69.1 °F 29.7 in South 6.2 mph 12.5 mph 65.6% 0 in 50 W/m2
19:04 81.7 °F 68.7 °F 29.7 in South 5.3 mph 12.5 mph 65% 0 in 49 W/m2
19:09 81.7 °F 69.1 °F 29.7 in SSE 5.7 mph 12.5 mph 66% 0 in 48 W/m2
19:14 81.3 °F 69.8 °F 29.7 in South 6.6 mph 15 mph 68.4% 0 in 47 W/m2
19:19 80.2 °F 69.4 °F 29.7 in South 4.5 mph 15 mph 69.6% 0 in 46 W/m2
19:24 80.2 °F 69.1 °F 29.7 in South 6.3 mph 12.5 mph 69.1% 0 in 44 W/m2
19:29 80.2 °F 68.7 °F 29.7 in South 4.5 mph 10.1 mph 68.3% 0 in 43 W/m2
19:34 79.9 °F 69.3 °F 29.7 in South 4.3 mph 7.6 mph 69.8% 0 in 41 W/m2
19:39 79.3 °F 68.9 °F 29.7 in SSE 6 mph 10.1 mph 70.7% 0 in 39 W/m2
19:44 79.3 °F 69.6 °F 29.7 in South 6.1 mph 12.5 mph 72.2% 0 in 37 W/m2
19:49 79.2 °F 70 °F 29.7 in South 5 mph 12.5 mph 73.2% 0 in 35 W/m2
19:54 79 °F 70.2 °F 29.7 in South 6.5 mph 12.5 mph 74.4% 0 in 33 W/m2
19:59 78.1 °F 69.4 °F 29.7 in South 6.3 mph 12.5 mph 75% 0 in 31 W/m2
20:04 77.9 °F 69.3 °F 29.7 in South 6.2 mph 12.5 mph 75% 0 in 28 W/m2
20:09 77.9 °F 69.8 °F 29.7 in South 6.2 mph 12.5 mph 75.9% 0 in 26 W/m2
20:14 77.7 °F 69.8 °F 29.7 in South 5.4 mph 12.5 mph 76.6% 0 in 23 W/m2
20:19 77.2 °F 69.6 °F 29.7 in South 3.4 mph 7.6 mph 77.7% 0 in 20 W/m2
20:24 77.2 °F 69.8 °F 29.7 in South 3.4 mph 10.1 mph 78% 0 in 17 W/m2
20:29 77.2 °F 69.8 °F 29.7 in SSW 3.5 mph 10.1 mph 78% 0 in 13 W/m2
20:34 77 °F 70 °F 29.7 in South 3.9 mph 7.6 mph 78.9% 0 in 9 W/m2
20:39 76.6 °F 69.4 °F 29.7 in South 4.4 mph 12.5 mph 78.6% 0 in 7 W/m2
20:44 76.5 °F 69.1 °F 29.7 in South 4 mph 10.1 mph 78% 0 in 4 W/m2
20:49 76.5 °F 69.1 °F 29.7 in South 5.7 mph 12.5 mph 78% 0 in 0 W/m2
20:54 76.5 °F 69.1 °F 29.7 in South 5.2 mph 12.5 mph 78% 0 in 0 W/m2
20:59 76.3 °F 68.9 °F 29.7 in South 4.2 mph 10.1 mph 78% 0 in 0 W/m2
21:04 76.3 °F 68.5 °F 29.7 in South 4.5 mph 10.1 mph 77% 0 in 0 W/m2
21:09 76.3 °F 68.2 °F 29.7 in South 4.8 mph 10.1 mph 76% 0 in 0 W/m2
21:14 76.3 °F 67.8 °F 29.7 in South 4.6 mph 10.1 mph 75% 0 in 0 W/m2
21:19 76.1 °F 67.6 °F 29.7 in South 3.9 mph 10.1 mph 75% 0 in 0 W/m2
21:24 76.1 °F 67.5 °F 29.8 in South 3.6 mph 10.1 mph 74.6% 0 in 0 W/m2
21:29 76.1 °F 67.3 °F 29.8 in South 1.6 mph 10.1 mph 74% 0 in 0 W/m2
21:34 76.1 °F 67.3 °F 29.8 in South 3.7 mph 7.6 mph 74% 0 in 0 W/m2
21:39 75.7 °F 66.7 °F 29.8 in SSE 2.2 mph 10.1 mph 73.7% 0 in 0 W/m2
21:44 75.7 °F 66.4 °F 29.8 in South 4.2 mph 12.5 mph 73% 0 in 0 W/m2
21:49 75.7 °F 66.2 °F 29.8 in South 3.6 mph 10.1 mph 72.4% 0 in 0 W/m2
21:54 75.7 °F 66 °F 29.8 in South 3.4 mph 10.1 mph 72% 0 in 0 W/m2
21:59 75.7 °F 66 °F 29.8 in SSW 2.9 mph 7.6 mph 71.9% 0 in 0 W/m2
22:04 75.9 °F 66 °F 29.8 in South 2.2 mph 7.6 mph 71.6% 0 in 0 W/m2
22:09 75.7 °F 66 °F 29.8 in South 2 mph 7.6 mph 72% 0 in 0 W/m2
22:14 75.7 °F 66 °F 29.8 in South 1.7 mph 7.6 mph 72% 0 in 0 W/m2
22:19 75.6 °F 65.7 °F 29.8 in SSW 1.1 mph 4.9 mph 71.3% 0 in 0 W/m2
22:24 75.6 °F 65.3 °F 29.8 in SSW 1.2 mph 7.6 mph 70.6% 0 in 0 W/m2
22:29 75.6 °F 64.9 °F 29.8 in South 3 mph 10.1 mph 69.6% 0 in 0 W/m2
22:34 75.7 °F 64.9 °F 29.8 in South 3.2 mph 7.6 mph 69.4% 0 in 0 W/m2
22:39 75.9 °F 64.9 °F 29.8 in South 2.2 mph 7.6 mph 69% 0 in 0 W/m2
22:44 76.1 °F 64.9 °F 29.8 in South 2.4 mph 10.1 mph 68.6% 0 in 0 W/m2
22:49 76.1 °F 65.1 °F 29.8 in South 2.1 mph 7.6 mph 69% 0 in 0 W/m2
22:54 75.9 °F 64.9 °F 29.8 in South 1.8 mph 4.9 mph 69% 0 in 0 W/m2
22:59 75.4 °F 64.9 °F 29.8 in South 1.2 mph 7.6 mph 70% 0 in 0 W/m2
23:04 75.2 °F 64.8 °F 29.8 in South 1.1 mph 7.6 mph 70% 0 in 0 W/m2
23:09 75.4 °F 64.6 °F 29.8 in South 2.1 mph 10.1 mph 69% 0 in 0 W/m2
23:14 75.4 °F 64.4 °F 29.8 in South 1.6 mph 7.6 mph 68.7% 0 in 0 W/m2
23:19 75.6 °F 64.4 °F 29.8 in SSE 1.8 mph 10.1 mph 68.4% 0 in 0 W/m2
23:24 75.6 °F 64 °F 29.8 in South 2.2 mph 10.1 mph 67.2% 0 in 0 W/m2
23:29 75.7 °F 64.8 °F 29.8 in South 0.7 mph 4.9 mph 68.8% 0 in 0 W/m2
23:34 75.7 °F 64.9 °F 29.8 in South 0.8 mph 4.9 mph 69.3% 0 in 0 W/m2
23:39 75.2 °F 64.8 °F 29.8 in South 2.4 mph 7.6 mph 69.6% 0 in 0 W/m2
23:44 75.2 °F 64.4 °F 29.8 in SSW 0.5 mph 7.6 mph 68.9% 0 in 0 W/m2
23:49 75.2 °F 64.2 °F 29.8 in South 2.9 mph 7.6 mph 68.7% 0 in 0 W/m2
23:54 75.4 °F 64.6 °F 29.8 in South 2.1 mph 7.6 mph 69% 0 in 0 W/m2
23:59 75.4 °F 64.8 °F 29.8 in South 0.9 mph 4.9 mph 69.3% 0 in 0 W/m2
Juneau County Weather
Compliments of Weather Underground - 2 mb